Time;durP1;ratioP1;P1;durP2;ratioP2;P2;SDS_P1;SDS_P2;PMS_P1;PMS_P2;Temp;Humidity;BMP_temperature;BMP_pressure;BME280_temperature;BME280_humidity;BME280_pressure;Samples;Min_cycle;Max_cycle;Signal;HPM_P1;HPM_P2
2021/06/14 04:02:38;;;;;;;5.90;5.30;;;15.20;99.90;;;;;;4995470;28;20450;-64
2021/06/14 04:05:06;;;;;;;5.80;4.60;;;15.30;99.90;;;;;;4996221;28;20454;-64
2021/06/14 04:07:33;;;;;;;4.63;4.27;;;15.40;99.90;;;;;;4995346;28;20454;-64
2021/06/14 04:10:00;;;;;;;6.27;4.40;;;15.30;99.90;;;;;;4995469;28;20453;-64
2021/06/14 04:12:27;;;;;;;5.37;4.87;;;15.30;99.90;;;;;;4994712;28;20469;-64
2021/06/14 04:14:54;;;;;;;8.43;5.43;;;15.40;99.90;;;;;;4994907;28;20489;-64
2021/06/14 04:17:21;;;;;;;6.60;6.00;;;15.40;99.90;;;;;;4994997;28;20450;-64
2021/06/14 04:19:50;;;;;;;7.27;5.47;;;15.40;99.90;;;;;;4995193;28;20441;-64
2021/06/14 04:22:16;;;;;;;5.80;5.30;;;15.40;99.90;;;;;;4994306;28;20492;-65
2021/06/14 04:24:43;;;;;;;6.00;5.50;;;15.30;99.90;;;;;;4994888;28;20465;-65
2021/06/14 04:27:10;;;;;;;6.60;5.50;;;15.30;99.90;;;;;;4994878;28;20488;-65
2021/06/14 04:29:37;;;;;;;7.43;5.60;;;15.30;99.90;;;;;;4994847;28;20461;-65
2021/06/14 04:32:05;;;;;;;5.90;5.43;;;15.30;99.90;;;;;;4994710;28;20473;-64
2021/06/14 04:34:32;;;;;;;6.00;5.50;;;15.30;99.90;;;;;;4996056;28;20467;-65
2021/06/14 04:37:00;;;;;;;5.33;4.93;;;15.30;99.90;;;;;;5012025;28;20460;-65
2021/06/14 04:39:27;;;;;;;7.10;6.40;;;15.30;99.90;;;;;;5002568;28;20508;-66
2021/06/14 04:41:55;;;;;;;5.57;5.20;;;15.20;99.90;;;;;;4994575;28;20485;-64
2021/06/14 04:44:22;;;;;;;6.43;5.93;;;15.20;99.90;;;;;;4998002;28;20457;-66
2021/06/14 04:46:49;;;;;;;6.77;5.67;;;15.10;99.90;;;;;;4998375;28;20456;-65
2021/06/14 04:49:16;;;;;;;6.67;6.07;;;15.20;99.90;;;;;;4998251;28;20453;-65
2021/06/14 04:51:43;;;;;;;6.87;6.20;;;15.30;99.90;;;;;;4998316;28;20480;-65
2021/06/14 04:54:11;;;;;;;6.20;5.60;;;15.30;99.90;;;;;;4998060;28;20460;-64
2021/06/14 04:56:37;;;;;;;5.63;5.23;;;15.40;99.90;;;;;;4998234;28;20454;-64
2021/06/14 04:59:04;;;;;;;6.27;5.67;;;15.40;99.90;;;;;;4997785;28;20995;-65
2021/06/14 05:01:31;;;;;;;5.57;5.07;;;15.30;99.90;;;;;;4997670;28;20481;-64
2021/06/14 05:03:58;;;;;;;5.17;4.77;;;15.40;99.90;;;;;;4997987;28;20457;-65
2021/06/14 05:06:25;;;;;;;5.90;5.37;;;15.30;99.90;;;;;;4997548;28;20942;-64
2021/06/14 05:08:51;;;;;;;5.37;4.87;;;15.40;99.90;;;;;;4997922;28;20454;-65
2021/06/14 05:11:19;;;;;;;6.13;5.13;;;15.50;99.90;;;;;;4997770;28;20480;-64
2021/06/14 05:13:46;;;;;;;9.27;5.23;;;15.70;99.90;;;;;;4997764;28;20815;-64
2021/06/14 05:16:13;;;;;;;8.70;5.70;;;15.70;99.90;;;;;;4997568;28;20460;-65
2021/06/14 05:18:39;;;;;;;5.90;5.30;;;15.80;99.90;;;;;;4997899;28;20461;-63
2021/06/14 05:21:06;;;;;;;5.80;5.17;;;15.90;99.90;;;;;;4997689;28;20492;-64
2021/06/14 05:23:33;;;;;;;5.77;5.10;;;16.10;99.90;;;;;;4998005;28;20449;-64
2021/06/14 05:26:00;;;;;;;9.27;5.10;;;16.20;99.90;;;;;;4997413;28;20939;-64
2021/06/14 05:28:28;;;;;;;9.37;6.03;;;16.50;99.90;;;;;;4997845;28;20564;-64
2021/06/14 05:30:55;;;;;;;6.00;5.33;;;16.60;99.90;;;;;;4998704;28;20474;-64
2021/06/14 05:33:21;;;;;;;8.03;5.67;;;16.60;99.90;;;;;;4997348;28;20465;-64
2021/06/14 05:35:48;;;;;;;6.40;5.07;;;16.60;99.90;;;;;;4997273;28;20466;-64
2021/06/14 05:38:15;;;;;;;5.80;5.30;;;16.60;99.90;;;;;;4997080;28;20949;-64
2021/06/14 05:40:42;;;;;;;6.10;5.37;;;16.60;99.90;;;;;;4997483;28;20903;-64
2021/06/14 05:43:08;;;;;;;5.20;4.80;;;16.70;99.90;;;;;;4996898;28;21021;-64
2021/06/14 05:45:37;;;;;;;6.83;5.10;;;16.60;99.90;;;;;;4997189;28;20942;-64
2021/06/14 05:48:04;;;;;;;5.37;4.83;;;16.70;99.90;;;;;;4997010;28;20481;-64
2021/06/14 05:50:31;;;;;;;6.30;4.87;;;16.80;99.90;;;;;;4996936;28;20597;-64
2021/06/14 05:52:58;;;;;;;7.50;5.27;;;16.90;99.90;;;;;;4996779;28;20450;-64
2021/06/14 05:55:25;;;;;;;8.10;5.23;;;17.00;99.90;;;;;;4995547;28;20850;-64
2021/06/14 05:57:52;;;;;;;9.03;5.07;;;17.30;99.90;;;;;;4997439;28;20461;-64
2021/06/14 06:00:19;;;;;;;6.33;4.50;;;17.60;99.90;;;;;;4996301;28;20461;-64
2021/06/14 06:02:48;;;;;;;7.40;4.93;;;17.80;99.90;;;;;;4996760;28;20842;-65
2021/06/14 06:05:14;;;;;;;6.07;5.33;;;18.00;99.90;;;;;;4996693;28;20443;-64
2021/06/14 06:07:41;;;;;;;5.43;4.93;;;18.30;99.90;;;;;;4996590;28;20453;-64
2021/06/14 06:10:10;;;;;;;6.27;4.80;;;18.40;99.90;;;;;;4996620;28;20807;-64
2021/06/14 06:12:38;;;;;;;4.77;4.37;;;18.60;99.90;;;;;;4996619;28;20456;-64
2021/06/14 06:15:07;;;;;;;5.33;4.93;;;18.80;99.90;;;;;;4996531;28;20454;-64
2021/06/14 06:17:34;;;;;;;7.20;5.57;;;19.00;99.90;;;;;;4996462;28;20438;-64
2021/06/14 06:20:03;;;;;;;5.20;4.70;;;19.10;99.90;;;;;;4996517;28;20461;-65
2021/06/14 06:22:30;;;;;;;5.70;5.10;;;19.10;99.90;;;;;;4996230;28;20601;-65
2021/06/14 06:24:57;;;;;;;4.57;4.13;;;19.40;99.90;;;;;;4996254;28;20907;-63
2021/06/14 06:27:23;;;;;;;4.60;3.80;;;19.60;99.90;;;;;;4996356;28;20465;-63
2021/06/14 06:29:50;;;;;;;5.60;4.30;;;19.90;99.90;;;;;;4996225;28;20461;-64
2021/06/14 06:32:17;;;;;;;4.47;3.80;;;20.00;99.90;;;;;;4995957;28;20484;-64
2021/06/14 06:34:44;;;;;;;4.40;4.00;;;20.30;99.90;;;;;;4996259;28;20458;-64
2021/06/14 06:37:12;;;;;;;4.60;4.20;;;20.40;99.90;;;;;;4996245;28;20458;-64
2021/06/14 06:39:39;;;;;;;3.90;3.60;;;20.30;99.90;;;;;;4996000;28;20458;-64
2021/06/14 06:42:07;;;;;;;4.40;4.00;;;20.20;99.90;;;;;;4995814;28;20493;-64
2021/06/14 06:44:33;;;;;;;5.20;3.87;;;20.20;99.90;;;;;;4996193;28;20442;-64
2021/06/14 06:47:01;;;;;;;5.07;4.20;;;20.40;99.90;;;;;;4999610;28;20460;-64
2021/06/14 06:49:28;;;;;;;6.30;3.40;;;20.60;99.90;;;;;;4997172;28;20454;-64
2021/06/14 06:51:55;;;;;;;4.70;4.10;;;20.80;99.90;;;;;;5001095;28;20481;-64
2021/06/14 06:54:23;;;;;;;3.70;3.40;;;20.80;99.90;;;;;;4998776;28;20447;-64
2021/06/14 06:56:52;;;;;;;6.90;3.70;;;21.00;99.90;;;;;;4996845;28;20454;-64
2021/06/14 06:59:19;;;;;;;4.23;3.70;;;21.30;99.90;;;;;;4995835;28;20446;-64
2021/06/14 07:01:46;;;;;;;3.97;3.50;;;21.70;98.70;;;;;;4995189;28;20517;-64
2021/06/14 07:04:13;;;;;;;11.93;4.47;;;22.20;98.60;;;;;;4995962;28;20458;-64
2021/06/14 07:06:40;;;;;;;3.80;3.37;;;22.60;96.20;;;;;;4995506;28;20938;-65
2021/06/14 07:09:07;;;;;;;3.77;3.00;;;23.30;95.30;;;;;;4995766;28;20458;-65
2021/06/14 07:11:35;;;;;;;5.40;3.60;;;23.90;93.30;;;;;;4995472;28;20473;-65
2021/06/14 07:14:03;;;;;;;6.10;3.20;;;24.40;91.90;;;;;;4995635;28;20477;-65
2021/06/14 07:16:30;;;;;;;3.80;3.40;;;24.90;88.70;;;;;;4995573;28;20446;-65
2021/06/14 07:18:57;;;;;;;4.60;3.50;;;25.40;90.30;;;;;;4996348;28;20449;-65
2021/06/14 07:21:25;;;;;;;3.90;3.30;;;25.90;84.50;;;;;;4995238;28;20473;-65
2021/06/14 07:23:52;;;;;;;5.50;3.20;;;26.10;80.60;;;;;;4994988;28;20458;-65
2021/06/14 07:26:18;;;;;;;4.17;3.40;;;26.30;80.70;;;;;;4995362;28;20453;-65
2021/06/14 07:28:46;;;;;;;8.00;3.43;;;26.40;78.40;;;;;;4994905;28;20454;-65
2021/06/14 07:31:14;;;;;;;3.10;2.90;;;26.70;84.00;;;;;;4995192;28;20502;-65
2021/06/14 07:33:41;;;;;;;8.77;3.40;;;27.00;75.60;;;;;;4995432;28;20450;-65
2021/06/14 07:36:10;;;;;;;3.63;3.20;;;27.40;75.60;;;;;;4995525;28;20457;-65
2021/06/14 07:38:38;;;;;;;6.23;3.13;;;27.20;72.60;;;;;;4994846;28;20986;-66
2021/06/14 07:41:05;;;;;;;5.80;3.33;;;27.60;73.70;;;;;;4994882;28;20482;-65
2021/06/14 07:43:33;;;;;;;7.30;3.30;;;27.80;70.90;;;;;;4995479;28;20561;-66
2021/06/14 07:46:02;;;;;;;4.17;3.57;;;28.20;69.90;;;;;;4994871;28;20437;-65
2021/06/14 07:48:29;;;;;;;2.93;2.57;;;28.00;69.90;;;;;;4995207;28;20829;-64
2021/06/14 07:50:56;;;;;;;4.53;2.67;;;28.40;66.90;;;;;;4994881;28;20513;-65
2021/06/14 07:53:23;;;;;;;3.50;3.00;;;28.60;67.00;;;;;;4994592;28;20452;-65
2021/06/14 07:55:52;;;;;;;3.73;3.13;;;29.00;66.10;;;;;;4994580;28;20461;-65
2021/06/14 07:58:18;;;;;;;3.20;2.90;;;28.60;63.80;;;;;;4995002;28;20442;-65
2021/06/14 08:00:45;;;;;;;4.30;3.23;;;29.00;64.90;;;;;;4994425;28;20486;-65
2021/06/14 08:03:13;;;;;;;4.40;3.53;;;29.30;63.90;;;;;;4994824;28;20462;-65
2021/06/14 08:05:43;;;;;;;5.03;3.40;;;29.20;64.10;;;;;;4994860;28;20445;-65
2021/06/14 08:08:10;;;;;;;3.63;3.10;;;29.30;64.60;;;;;;4994716;28;20438;-66
2021/06/14 08:10:37;;;;;;;3.70;3.10;;;29.90;66.80;;;;;;4994525;28;20473;-65
2021/06/14 08:13:04;;;;;;;4.17;3.70;;;30.00;59.50;;;;;;4994622;28;20460;-65
2021/06/14 08:15:32;;;;;;;5.10;3.50;;;29.70;63.20;;;;;;4994792;28;20465;-65
2021/06/14 08:18:06;;;;;;;3.03;2.83;;;29.70;58.80;;;;;;4994434;28;20457;-65
2021/06/14 08:20:38;;;;;;;4.37;3.43;;;30.00;59.20;;;;;;4994688;28;20480;-66
2021/06/14 08:25:49;;;;;;;3.70;3.40;;;31.00;58.30;;;;;;4994761;28;20425;-65
2021/06/14 08:28:16;;;;;;;3.97;3.07;;;31.40;57.10;;;;;;4995051;28;20454;-65
2021/06/14 08:30:43;;;;;;;4.77;3.50;;;31.70;57.40;;;;;;4994744;28;20986;-66
2021/06/14 08:33:09;;;;;;;4.23;2.80;;;31.60;57.40;;;;;;4995492;28;20835;-66
2021/06/14 08:35:38;;;;;;;3.03;2.70;;;32.00;56.00;;;;;;4995678;28;20461;-65
2021/06/14 08:38:05;;;;;;;4.60;4.20;;;31.90;56.20;;;;;;4994665;28;20457;-65
2021/06/14 08:40:34;;;;;;;3.13;2.63;;;32.20;54.30;;;;;;4994352;28;20980;-65
2021/06/14 08:43:03;;;;;;;3.73;3.20;;;32.30;55.10;;;;;;4995021;28;20493;-65
2021/06/14 08:45:32;;;;;;;5.40;3.47;;;32.40;54.20;;;;;;4999579;28;20935;-66
2021/06/14 08:48:00;;;;;;;3.47;2.87;;;32.20;52.90;;;;;;5003436;28;20438;-66
2021/06/14 08:50:27;;;;;;;4.03;3.00;;;32.10;53.30;;;;;;5003446;28;20453;-66
2021/06/14 08:52:55;;;;;;;3.47;3.07;;;31.80;53.10;;;;;;5002547;28;20457;-66
2021/06/14 08:55:23;;;;;;;3.10;2.80;;;32.00;53.50;;;;;;5002190;28;20449;-66
2021/06/14 08:57:51;;;;;;;6.00;3.93;;;32.50;52.60;;;;;;5003736;28;20954;-65
2021/06/14 09:00:21;;;;;;;4.77;3.20;;;32.20;54.00;;;;;;5002426;28;20544;-67
2021/06/14 09:02:49;;;;;;;7.13;3.37;;;32.40;50.40;;;;;;5001175;28;20462;-66
2021/06/14 09:05:20;;;;;;;3.50;3.07;;;32.80;52.20;;;;;;4997093;28;20456;-65
2021/06/14 09:07:47;;;;;;;3.40;3.10;;;32.20;53.70;;;;;;4997299;28;20465;-65
2021/06/14 09:10:30;;;;;;;4.70;2.90;;;33.00;52.80;;;;;;5001649;28;20499;-66
2021/06/14 09:13:10;;;;;;;3.80;3.40;;;33.60;52.50;;;;;;4994284;28;20453;-65
2021/06/14 09:15:37;;;;;;;4.07;3.00;;;33.10;51.30;;;;;;4994304;28;20441;-65
2021/06/14 09:18:15;;;;;;;2.93;2.70;;;33.40;48.70;;;;;;4994129;28;20461;-65
2021/06/14 09:20:56;;;;;;;2.87;2.67;;;33.20;48.90;;;;;;4993703;28;20469;-65
2021/06/14 09:23:23;;;;;;;2.83;2.63;;;33.20;50.30;;;;;;4993965;28;20465;-66
2021/06/14 09:25:52;;;;;;;3.50;3.20;;;32.90;50.20;;;;;;4994056;28;20565;-65
2021/06/14 09:28:19;;;;;;;4.60;3.13;;;33.60;49.50;;;;;;4994053;28;20437;-65
2021/06/14 09:30:46;;;;;;;4.73;3.00;;;34.00;50.00;;;;;;4995955;28;20528;-65
2021/06/14 09:33:23;;;;;;;4.00;3.20;;;33.70;50.80;;;;;;4997422;28;20450;-65
2021/06/14 09:35:52;;;;;;;3.27;3.07;;;34.50;50.80;;;;;;4997431;28;20437;-65
2021/06/14 09:38:20;;;;;;;3.43;3.13;;;34.20;50.80;;;;;;4997245;28;20460;-65
2021/06/14 09:40:49;;;;;;;12.73;3.20;;;34.40;51.10;;;;;;4997219;28;20478;-65
2021/06/14 09:43:27;;;;;;;5.77;3.47;;;34.40;50.80;;;;;;4997083;28;20481;-66
2021/06/14 09:45:54;;;;;;;4.80;3.23;;;33.80;50.80;;;;;;4997067;28;20445;-65
2021/06/14 09:48:23;;;;;;;3.87;3.50;;;34.10;49.80;;;;;;4997547;28;20456;-65
2021/06/14 09:50:54;;;;;;;5.33;3.57;;;34.40;49.80;;;;;;4997911;28;20473;-65
2021/06/14 09:53:22;;;;;;;3.30;3.00;;;34.90;53.10;;;;;;4997304;28;20439;-65
2021/06/14 09:55:51;;;;;;;3.53;2.83;;;35.20;49.10;;;;;;4996794;28;20806;-65
2021/06/14 09:58:21;;;;;;;4.50;3.10;;;35.50;49.30;;;;;;4996998;28;20552;-65
2021/06/14 10:00:59;;;;;;;3.47;3.17;;;34.00;47.10;;;;;;4996951;28;20559;-65
2021/06/14 10:03:28;;;;;;;3.97;3.03;;;33.90;50.80;;;;;;4997437;28;20492;-66
2021/06/14 10:05:56;;;;;;;3.80;3.40;;;34.50;49.10;;;;;;4996908;28;20441;-64
2021/06/14 10:08:29;;;;;;;3.90;2.90;;;35.20;49.20;;;;;;4996564;28;20511;-64
2021/06/14 10:11:07;;;;;;;3.73;3.53;;;35.30;46.90;;;;;;4996746;28;20483;-64
2021/06/14 10:13:34;;;;;;;5.50;3.57;;;35.40;46.70;;;;;;4996637;28;20492;-64
2021/06/14 10:16:05;;;;;;;3.37;3.07;;;35.50;49.50;;;;;;4996678;28;20933;-65
2021/06/14 10:18:35;;;;;;;4.30;3.20;;;35.50;47.10;;;;;;4996631;28;20812;-64
2021/06/14 10:21:03;;;;;;;3.03;2.83;;;35.50;45.30;;;;;;4996348;28;20477;-65
2021/06/14 10:23:30;;;;;;;3.17;2.87;;;35.60;46.50;;;;;;4996150;28;20484;-65
2021/06/14 10:25:59;;;;;;;7.80;3.37;;;35.30;48.80;;;;;;4996241;28;20817;-66
2021/06/14 10:28:27;;;;;;;3.40;3.10;;;34.60;47.30;;;;;;4996681;28;20499;-65
2021/06/14 10:30:54;;;;;;;4.70;2.83;;;34.70;46.40;;;;;;4996188;28;20974;-66
2021/06/14 10:33:25;;;;;;;3.20;2.90;;;35.20;46.90;;;;;;4996402;28;20444;-66
2021/06/14 10:35:56;;;;;;;3.47;3.17;;;35.20;45.40;;;;;;4996123;28;20437;-66
2021/06/14 10:38:23;;;;;;;5.80;4.80;;;35.30;46.60;;;;;;4995979;28;20972;-65
2021/06/14 10:40:53;;;;;;;3.37;3.07;;;35.40;46.30;;;;;;4995500;28;20480;-65
2021/06/14 10:43:25;;;;;;;3.80;3.30;;;35.30;47.70;;;;;;4995797;28;20487;-65
2021/06/14 10:45:52;;;;;;;3.10;2.80;;;35.50;47.20;;;;;;4995611;28;20992;-65
2021/06/14 10:48:27;;;;;;;5.30;3.60;;;34.70;46.90;;;;;;4996339;28;20943;-65
2021/06/14 10:50:55;;;;;;;5.40;3.07;;;34.90;44.80;;;;;;4996413;28;20495;-65
2021/06/14 10:53:31;;;;;;;3.50;3.20;;;35.00;47.80;;;;;;4998014;28;20457;-65
2021/06/14 10:56:00;;;;;;;3.43;3.13;;;35.40;46.90;;;;;;4996363;28;20469;-66
2021/06/14 10:58:30;;;;;;;3.10;2.90;;;34.40;47.30;;;;;;4996212;28;20533;-65
2021/06/14 11:01:01;;;;;;;5.17;2.97;;;34.70;45.60;;;;;;4995700;28;20945;-65
2021/06/14 11:03:43;;;;;;;7.50;3.40;;;34.80;47.80;;;;;;4995539;28;20477;-65
2021/06/14 11:06:21;;;;;;;3.43;3.00;;;35.10;47.70;;;;;;4996359;28;20437;-65
2021/06/14 11:09:03;;;;;;;5.03;4.53;;;35.10;45.70;;;;;;4995490;28;20442;-66
2021/06/14 11:11:31;;;;;;;3.50;3.20;;;35.30;46.10;;;;;;4995215;28;20477;-65
2021/06/14 11:13:58;;;;;;;3.70;3.40;;;34.90;44.40;;;;;;4995316;28;20449;-65
2021/06/14 11:16:36;;;;;;;4.50;3.50;;;34.40;47.50;;;;;;4995308;28;20454;-65
2021/06/14 11:19:07;;;;;;;3.37;3.07;;;34.10;46.40;;;;;;4995388;28;20437;-65
2021/06/14 11:21:34;;;;;;;3.87;3.47;;;34.20;47.40;;;;;;4995236;28;20532;-65
2021/06/14 11:24:07;;;;;;;3.17;2.90;;;33.00;49.50;;;;;;4995130;28;20477;-65
2021/06/14 11:26:35;;;;;;;3.63;3.33;;;33.10;51.80;;;;;;4995188;28;20448;-65
2021/06/14 11:29:12;;;;;;;5.00;2.83;;;32.90;50.00;;;;;;4995092;28;20458;-64
2021/06/14 11:31:39;;;;;;;3.37;3.03;;;32.90;51.70;;;;;;4995213;28;20477;-65
2021/06/14 11:34:19;;;;;;;7.67;3.00;;;32.70;51.40;;;;;;4994782;28;20438;-64
2021/06/14 11:36:55;;;;;;;4.60;2.87;;;32.50;51.10;;;;;;4995189;28;20504;-64
2021/06/14 11:39:23;;;;;;;3.33;3.00;;;32.40;50.60;;;;;;4995056;28;20950;-64
2021/06/14 11:41:52;;;;;;;3.40;3.10;;;32.20;50.60;;;;;;4994984;28;20480;-64
2021/06/14 11:44:21;;;;;;;3.03;2.80;;;32.00;49.70;;;;;;4995111;28;20478;-65
2021/06/14 11:46:48;;;;;;;5.43;3.00;;;31.90;50.90;;;;;;4994872;28;20457;-63
2021/06/14 11:49:17;;;;;;;3.20;2.90;;;31.70;51.40;;;;;;4995139;28;20462;-65
2021/06/14 11:51:44;;;;;;;4.00;3.47;;;31.50;50.90;;;;;;4994456;28;20500;-65
2021/06/14 11:54:14;;;;;;;3.60;3.03;;;31.60;52.90;;;;;;4994382;28;20826;-66
2021/06/14 11:56:41;;;;;;;4.20;3.43;;;31.40;51.70;;;;;;4994803;28;20442;-65
2021/06/14 11:59:08;;;;;;;3.67;3.37;;;31.20;56.20;;;;;;4994463;28;20939;-65
2021/06/14 12:01:37;;;;;;;2.70;2.50;;;31.30;55.40;;;;;;4994309;28;20504;-65
2021/06/14 12:04:06;;;;;;;4.60;2.70;;;31.30;53.00;;;;;;4994662;28;20486;-65
2021/06/14 12:06:44;;;;;;;2.80;2.67;;;31.20;53.40;;;;;;4994384;28;20907;-65
2021/06/14 12:09:12;;;;;;;4.73;3.27;;;31.20;52.30;;;;;;4994556;28;20441;-65
2021/06/14 12:11:39;;;;;;;4.00;3.13;;;31.20;52.40;;;;;;4994296;28;20478;-65
2021/06/14 12:14:14;;;;;;;3.47;3.00;;;31.30;50.10;;;;;;4994550;28;20461;-65
2021/06/14 12:16:41;;;;;;;3.77;2.80;;;31.10;53.20;;;;;;4994394;28;20449;-65
2021/06/14 12:19:08;;;;;;;3.00;2.80;;;31.40;52.40;;;;;;4994319;28;20462;-65
2021/06/14 12:21:35;;;;;;;3.23;2.60;;;30.80;52.60;;;;;;4994377;28;20477;-65
2021/06/14 12:24:14;;;;;;;3.07;2.80;;;31.10;53.80;;;;;;4994299;28;20842;-65
2021/06/14 12:26:42;;;;;;;3.27;2.97;;;31.10;52.00;;;;;;4994036;28;20445;-65
2021/06/14 12:29:18;;;;;;;3.53;3.10;;;31.00;53.00;;;;;;4994145;28;20456;-66
2021/06/14 12:31:45;;;;;;;6.20;3.00;;;31.20;53.50;;;;;;4994471;28;20477;-65
2021/06/14 12:34:11;;;;;;;3.13;2.83;;;31.20;53.40;;;;;;4994213;28;20453;-66
2021/06/14 12:36:38;;;;;;;3.23;3.00;;;30.80;51.50;;;;;;4994281;28;20458;-65
2021/06/14 12:39:06;;;;;;;3.80;3.33;;;31.00;53.40;;;;;;4994104;28;20458;-66
2021/06/14 12:41:33;;;;;;;4.17;3.20;;;30.80;53.40;;;;;;4994035;28;20478;-65
2021/06/14 12:44:00;;;;;;;5.03;3.30;;;30.70;54.30;;;;;;4994031;28;20477;-65
2021/06/14 12:46:34;;;;;;;4.57;2.70;;;31.00;50.10;;;;;;4994103;28;20458;-66
2021/06/14 12:49:01;;;;;;;3.60;3.23;;;31.00;51.10;;;;;;4994467;28;20457;-66
2021/06/14 12:51:33;;;;;;;3.10;2.50;;;31.10;50.60;;;;;;4996421;28;20508;-65
2021/06/14 12:54:00;;;;;;;5.13;3.10;;;31.20;52.50;;;;;;4994328;28;20437;-65
2021/06/14 12:56:28;;;;;;;4.10;2.93;;;30.70;50.10;;;;;;4993993;28;20465;-65
2021/06/14 12:58:55;;;;;;;3.73;2.80;;;31.00;51.80;;;;;;4993731;28;20453;-66
2021/06/14 13:01:22;;;;;;;3.30;2.77;;;31.00;55.20;;;;;;4993792;28;20496;-65
2021/06/14 13:03:50;;;;;;;3.83;3.43;;;31.10;53.60;;;;;;4994645;28;20843;-65
2021/06/14 13:06:16;;;;;;;3.60;3.30;;;31.20;53.70;;;;;;4997430;28;20449;-66
2021/06/14 13:08:47;;;;;;;2.83;2.63;;;31.10;52.50;;;;;;4997578;28;20802;-65
2021/06/14 13:11:15;;;;;;;3.60;2.80;;;31.20;53.70;;;;;;4998371;28;20531;-66
2021/06/14 13:13:45;;;;;;;3.67;2.50;;;31.00;52.80;;;;;;4997537;28;20456;-65
2021/06/14 13:16:15;;;;;;;2.80;2.60;;;31.10;51.40;;;;;;4997505;28;20826;-66
2021/06/14 13:18:43;;;;;;;2.60;2.40;;;31.10;52.60;;;;;;4997596;28;20462;-65
2021/06/14 13:21:12;;;;;;;3.33;2.90;;;31.30;55.30;;;;;;4997411;28;20832;-66
2021/06/14 13:23:47;;;;;;;3.37;2.40;;;30.90;51.50;;;;;;4997469;28;20477;-66
2021/06/14 13:26:13;;;;;;;2.90;2.60;;;30.60;52.90;;;;;;4997591;28;20441;-66
2021/06/14 13:28:43;;;;;;;3.20;2.90;;;31.00;53.00;;;;;;4997159;28;20469;-66
2021/06/14 13:31:12;;;;;;;3.30;3.07;;;31.30;52.60;;;;;;4997281;28;20480;-66
2021/06/14 13:33:45;;;;;;;3.50;2.60;;;31.20;49.60;;;;;;4997298;28;20453;-66
2021/06/14 13:36:14;;;;;;;4.77;2.77;;;31.40;51.70;;;;;;4997357;28;20438;-64
2021/06/14 13:38:42;;;;;;;2.70;2.50;;;31.30;49.30;;;;;;4998880;28;20454;-66
2021/06/14 13:41:09;;;;;;;2.87;2.53;;;30.90;51.00;;;;;;4997934;28;20478;-65
2021/06/14 13:43:37;;;;;;;2.50;2.30;;;30.90;51.80;;;;;;4998023;28;20878;-65
2021/06/14 13:46:05;;;;;;;4.13;3.27;;;31.00;53.10;;;;;;4997498;28;20454;-64
2021/06/14 13:48:43;;;;;;;2.90;2.70;;;31.00;54.40;;;;;;4996888;28;20460;-65
2021/06/14 13:51:14;;;;;;;3.90;2.83;;;31.10;51.70;;;;;;4997192;28;20474;-65
2021/06/14 13:53:49;;;;;;;2.60;2.50;;;30.60;52.80;;;;;;4996956;28;20453;-65
2021/06/14 13:56:16;;;;;;;5.60;3.03;;;30.80;53.20;;;;;;4996805;28;20479;-65
2021/06/14 13:58:45;;;;;;;9.33;2.90;;;30.80;53.40;;;;;;4996674;28;20825;-65
2021/06/14 14:01:14;;;;;;;6.20;2.80;;;30.70;54.80;;;;;;4996516;28;20490;-65
2021/06/14 14:03:43;;;;;;;2.70;2.50;;;31.00;54.70;;;;;;4996559;28;20520;-64
2021/06/14 14:06:10;;;;;;;3.83;2.70;;;30.90;53.60;;;;;;4996599;28;20458;-65
2021/06/14 14:08:37;;;;;;;2.50;2.30;;;30.90;53.00;;;;;;4996635;28;20472;-65
2021/06/14 14:11:05;;;;;;;2.80;2.60;;;30.90;52.50;;;;;;4997124;28;20584;-65
2021/06/14 14:13:31;;;;;;;3.90;2.90;;;30.90;50.10;;;;;;4997123;28;20888;-65
2021/06/14 14:15:58;;;;;;;2.67;2.57;;;30.90;50.20;;;;;;4995706;28;20454;-65
2021/06/14 14:18:25;;;;;;;2.95;2.72;;;30.80;51.80;;;;;;4996238;28;20463;-66
2021/06/14 14:20:53;;;;;;;3.90;3.03;;;31.00;54.50;;;;;;4996457;28;20292;-66
2021/06/14 14:23:20;;;;;;;4.10;2.50;;;31.20;52.60;;;;;;4996289;28;20460;-66
2021/06/14 14:25:48;;;;;;;3.00;2.80;;;31.10;51.20;;;;;;4996271;28;20486;-67
2021/06/14 14:28:14;;;;;;;2.80;2.60;;;30.90;53.00;;;;;;4996348;28;20487;-66
2021/06/14 14:30:45;;;;;;;3.30;2.50;;;31.10;54.70;;;;;;4995742;28;20987;-66
2021/06/14 14:33:12;;;;;;;3.37;3.10;;;31.00;52.10;;;;;;4996034;28;20442;-66
2021/06/14 14:36:00;;;;;;;2.93;2.70;;;30.90;54.60;;;;;;4996254;28;20460;-66
2021/06/14 14:38:27;;;;;;;4.20;2.47;;;30.90;53.10;;;;;;4996089;28;20445;-66
2021/06/14 14:40:55;;;;;;;3.60;2.50;;;31.10;53.70;;;;;;4995597;28;21013;-67
2021/06/14 14:43:21;;;;;;;3.60;2.73;;;31.00;51.60;;;;;;4995949;28;20458;-66
2021/06/14 14:45:49;;;;;;;2.50;2.30;;;31.00;53.40;;;;;;4995540;28;20997;-66
2021/06/14 14:48:16;;;;;;;3.00;2.77;;;31.00;52.60;;;;;;4995597;28;21018;-66
2021/06/14 14:50:45;;;;;;;5.03;2.70;;;30.90;54.10;;;;;;4995659;28;20477;-67
2021/06/14 14:53:18;;;;;;;4.00;2.40;;;30.90;54.10;;;;;;4995542;28;20450;-67
2021/06/14 14:55:45;;;;;;;3.00;2.60;;;30.70;53.70;;;;;;4995678;28;20826;-67
2021/06/14 14:58:12;;;;;;;9.83;2.77;;;30.90;52.70;;;;;;4995860;28;20446;-67
2021/06/14 15:00:38;;;;;;;2.30;2.20;;;30.60;52.70;;;;;;4995657;28;20482;-66
2021/06/14 15:03:06;;;;;;;5.83;2.40;;;30.50;53.10;;;;;;4995726;28;20445;-67
2021/06/14 15:05:33;;;;;;;2.20;2.10;;;30.50;54.40;;;;;;4996345;28;20485;-67
2021/06/14 15:07:59;;;;;;;2.87;2.67;;;30.40;54.70;;;;;;4995780;28;20960;-67
2021/06/14 15:10:28;;;;;;;3.50;2.30;;;30.40;52.70;;;;;;4995522;28;20457;-65
2021/06/14 15:12:55;;;;;;;3.73;2.87;;;30.50;54.50;;;;;;4996003;28;20450;-65
2021/06/14 15:15:22;;;;;;;3.00;2.50;;;30.30;51.70;;;;;;4995444;28;20449;-65
2021/06/14 15:17:51;;;;;;;4.88;2.30;;;30.10;51.20;;;;;;4995050;28;20491;-65
2021/06/14 15:20:20;;;;;;;3.27;2.53;;;30.10;50.70;;;;;;4995282;28;20206;-65
2021/06/14 15:22:47;;;;;;;3.30;2.87;;;30.10;51.90;;;;;;4994900;28;20939;-66
2021/06/14 15:25:16;;;;;;;5.17;2.03;;;30.30;53.70;;;;;;4995254;28;20482;-65
2021/06/14 15:27:45;;;;;;;3.93;2.13;;;30.30;52.70;;;;;;4995080;28;20461;-65
2021/06/14 15:30:15;;;;;;;2.27;2.17;;;30.30;49.80;;;;;;4995681;28;20460;-65
2021/06/14 15:32:47;;;;;;;2.57;2.37;;;30.40;53.30;;;;;;4995783;28;20485;-65
2021/06/14 15:35:14;;;;;;;6.60;2.73;;;30.50;52.90;;;;;;4995101;28;20458;-65
2021/06/14 15:37:41;;;;;;;4.17;2.20;;;30.60;50.60;;;;;;4994656;28;20859;-65
2021/06/14 15:40:09;;;;;;;2.67;2.47;;;30.40;52.60;;;;;;5000696;28;20454;-65
2021/06/14 15:42:36;;;;;;;5.13;2.30;;;30.40;51.90;;;;;;5009230;28;20470;-65
2021/06/14 15:45:06;;;;;;;2.43;2.23;;;30.60;50.90;;;;;;4997017;28;20477;-65
2021/06/14 15:47:34;;;;;;;2.33;2.23;;;30.50;53.50;;;;;;4994869;28;20911;-63
2021/06/14 15:50:00;;;;;;;3.27;2.17;;;30.50;52.30;;;;;;4994838;28;20845;-63
2021/06/14 15:52:27;;;;;;;2.70;2.50;;;30.60;52.70;;;;;;4994507;28;20485;-65
2021/06/14 15:54:54;;;;;;;3.90;2.70;;;30.70;51.20;;;;;;4994437;28;20962;-65
2021/06/14 15:57:21;;;;;;;3.50;2.10;;;30.60;51.70;;;;;;4994778;28;20441;-65
2021/06/14 15:59:47;;;;;;;3.20;2.10;;;30.50;51.60;;;;;;4994436;28;20945;-65
2021/06/14 16:02:15;;;;;;;2.87;2.40;;;30.50;51.40;;;;;;4994313;28;20493;-65
2021/06/14 16:04:42;;;;;;;4.60;2.43;;;30.40;52.70;;;;;;4994345;28;20844;-65
2021/06/14 16:07:09;;;;;;;3.40;2.17;;;30.50;52.30;;;;;;4994435;28;20422;-65
2021/06/14 16:09:36;;;;;;;4.40;2.37;;;30.50;52.10;;;;;;4994445;28;20835;-64
2021/06/14 16:12:03;;;;;;;3.43;2.30;;;30.50;52.30;;;;;;4994522;28;20474;-66
2021/06/14 16:14:30;;;;;;;2.20;2.10;;;30.60;51.80;;;;;;4994386;28;20872;-64
2021/06/14 16:16:57;;;;;;;2.73;2.30;;;30.70;52.10;;;;;;4994196;28;20820;-63
2021/06/14 16:19:25;;;;;;;2.80;2.00;;;30.70;51.90;;;;;;4994638;28;20485;-63
2021/06/14 16:21:52;;;;;;;2.60;2.23;;;30.40;50.50;;;;;;4993830;28;21037;-62
2021/06/14 16:24:19;;;;;;;3.17;2.13;;;30.50;51.30;;;;;;4993684;28;20459;-65
2021/06/14 16:26:45;;;;;;;2.30;2.20;;;30.50;51.40;;;;;;4994453;28;20454;-65
2021/06/14 16:29:14;;;;;;;3.00;2.67;;;30.50;52.00;;;;;;4994116;28;20458;-65
2021/06/14 16:31:41;;;;;;;4.03;2.73;;;30.50;52.90;;;;;;4993898;28;20473;-64
2021/06/14 16:34:08;;;;;;;2.60;2.33;;;30.40;52.50;;;;;;4994358;28;20456;-65
2021/06/14 16:36:38;;;;;;;2.87;2.40;;;30.40;52.30;;;;;;4994393;28;20800;-65
2021/06/14 16:39:07;;;;;;;2.63;2.53;;;30.30;51.90;;;;;;4996196;28;20517;-65
2021/06/14 16:41:33;;;;;;;2.33;2.20;;;30.30;52.60;;;;;;4998328;28;20524;-65
2021/06/14 16:44:00;;;;;;;4.60;2.40;;;30.20;52.80;;;;;;4998157;28;20452;-65
2021/06/14 16:46:27;;;;;;;2.40;1.73;;;30.30;53.20;;;;;;4998728;28;20473;-66
2021/06/14 16:48:54;;;;;;;4.03;2.03;;;30.20;52.30;;;;;;4998021;28;20456;-65
2021/06/14 16:51:20;;;;;;;2.83;2.63;;;30.20;52.10;;;;;;4997778;28;20978;-65
2021/06/14 16:53:48;;;;;;;2.37;2.23;;;30.20;52.80;;;;;;4998141;28;20464;-65
2021/06/14 16:56:15;;;;;;;2.50;2.40;;;30.00;52.20;;;;;;4997947;28;20449;-64
2021/06/14 16:58:42;;;;;;;2.40;2.30;;;29.90;53.10;;;;;;4997846;28;20453;-66